Startpagina
METAR-TAF:

METAR-TAF

Vliegvelden :

Tasjkent, Oezbekistan

breedte: 41-16N, lengte: 069-16E, hoogte: 489 m

Actueel weer

Dit bericht is 20 minuten geleden gemaakt, om 22:30 UTC
Wind 2 kt uit het oosten
Temperatuur 25°C
Vochtigheid 41%
Druk 1002 hPa
Zicht 10 km of meer
geen wolken onder 1500 m en geen cumulonimbus

METAR: UTTT 252230Z 10002KT CAVOK 25/11 Q1002 R08R/CLRD70 NOSIG

Tijdstip: 03:50 (22:50 UTC)

Verwachting

Dit bericht is 5 uur en het 50 minuten geleden gemaakt, om 17:00 UTC
Verwachting geldig van 25 om 18 UTC tot 26 om 18 UTC
Wind 10 kt uit het oostnoordoosten
Zicht: 7000 m

TAF: UTTT 251700Z 2518/2618 06010KT 7000 NSC TX40/2611Z

Waarnemingen en weersverwachtingen van meer dan 4000 vliegvelden (METAR en TAF).

De beschikbare stations zijn de gele en rode punten op de kaart.

Ga met uw muis naar het station om de naam te zien.

Klik dan om waarnemingen en weersverwachtingen te zien.

kaart wijzigen: klik op de groene knoppen met een zwart kruis om in te zoomen, op de groene knop met een streepje om uit te zoomen of op de groene pijlen voor aangrenzende kaarten.


METAR-TAF: